sensor_id;sensor_type;location;lat;lon;timestamp;P1;durP1;ratioP1;P2;durP2;ratioP2
3101;SDS011;1561;42.666;23.392;2024-03-25T00:01:06;0.50;;;0.50;;
3101;SDS011;1561;42.666;23.392;2024-03-25T00:03:37;0.47;;;0.40;;
3101;SDS011;1561;42.666;23.392;2024-03-25T00:06:08;0.80;;;0.50;;
3101;SDS011;1561;42.666;23.392;2024-03-25T00:11:23;0.43;;;0.43;;
3101;SDS011;1561;42.666;23.392;2024-03-25T00:13:54;0.70;;;0.50;;
3101;SDS011;1561;42.666;23.392;2024-03-25T00:16:22;0.70;;;0.50;;
3101;SDS011;1561;42.666;23.392;2024-03-25T00:18:50;0.40;;;0.40;;
3101;SDS011;1561;42.666;23.392;2024-03-25T00:21:19;0.53;;;0.53;;
3101;SDS011;1561;42.666;23.392;2024-03-25T00:23:48;0.90;;;0.70;;
3101;SDS011;1561;42.666;23.392;2024-03-25T00:26:18;1.53;;;0.90;;
3101;SDS011;1561;42.666;23.392;2024-03-25T00:28:48;1.00;;;0.50;;
3101;SDS011;1561;42.666;23.392;2024-03-25T00:31:15;0.80;;;0.80;;
3101;SDS011;1561;42.666;23.392;2024-03-25T00:33:46;0.97;;;0.80;;
3101;SDS011;1561;42.666;23.392;2024-03-25T00:36:13;0.87;;;0.77;;
3101;SDS011;1561;42.666;23.392;2024-03-25T00:38:44;1.00;;;0.60;;
3101;SDS011;1561;42.666;23.392;2024-03-25T00:41:11;0.80;;;0.70;;
3101;SDS011;1561;42.666;23.392;2024-03-25T00:43:45;1.23;;;0.70;;
3101;SDS011;1561;42.666;23.392;2024-03-25T00:46:12;0.90;;;0.70;;
3101;SDS011;1561;42.666;23.392;2024-03-25T00:48:40;0.60;;;0.60;;
3101;SDS011;1561;42.666;23.392;2024-03-25T00:51:09;1.70;;;0.70;;
3101;SDS011;1561;42.666;23.392;2024-03-25T00:53:39;0.70;;;0.70;;
3101;SDS011;1561;42.666;23.392;2024-03-25T00:56:06;0.47;;;0.40;;
3101;SDS011;1561;42.666;23.392;2024-03-25T00:58:36;0.57;;;0.40;;
3101;SDS011;1561;42.666;23.392;2024-03-25T01:01:10;0.93;;;0.50;;
3101;SDS011;1561;42.666;23.392;2024-03-25T01:03:40;0.50;;;0.40;;
3101;SDS011;1561;42.666;23.392;2024-03-25T01:06:09;1.13;;;0.30;;
3101;SDS011;1561;42.666;23.392;2024-03-25T01:08:40;0.40;;;0.30;;
3101;SDS011;1561;42.666;23.392;2024-03-25T01:11:07;0.40;;;0.30;;
3101;SDS011;1561;42.666;23.392;2024-03-25T01:13:46;0.53;;;0.40;;
3101;SDS011;1561;42.666;23.392;2024-03-25T01:16:16;0.40;;;0.30;;
3101;SDS011;1561;42.666;23.392;2024-03-25T01:18:49;0.50;;;0.30;;
3101;SDS011;1561;42.666;23.392;2024-03-25T01:21:17;0.40;;;0.30;;
3101;SDS011;1561;42.666;23.392;2024-03-25T01:23:45;0.40;;;0.30;;
3101;SDS011;1561;42.666;23.392;2024-03-25T01:26:13;0.40;;;0.30;;
3101;SDS011;1561;42.666;23.392;2024-03-25T01:28:44;2.30;;;0.40;;
3101;SDS011;1561;42.666;23.392;2024-03-25T01:31:10;0.40;;;0.30;;
3101;SDS011;1561;42.666;23.392;2024-03-25T01:33:43;0.40;;;0.40;;
3101;SDS011;1561;42.666;23.392;2024-03-25T01:36:10;1.33;;;0.30;;
3101;SDS011;1561;42.666;23.392;2024-03-25T01:38:43;0.40;;;0.30;;
3101;SDS011;1561;42.666;23.392;2024-03-25T01:41:19;0.40;;;0.30;;
3101;SDS011;1561;42.666;23.392;2024-03-25T01:43:53;0.40;;;0.30;;
3101;SDS011;1561;42.666;23.392;2024-03-25T01:46:22;0.57;;;0.33;;
3101;SDS011;1561;42.666;23.392;2024-03-25T01:49:03;0.40;;;0.40;;
3101;SDS011;1561;42.666;23.392;2024-03-25T01:51:30;0.40;;;0.40;;
3101;SDS011;1561;42.666;23.392;2024-03-25T01:54:00;0.60;;;0.43;;
3101;SDS011;1561;42.666;23.392;2024-03-25T01:56:29;0.60;;;0.40;;
3101;SDS011;1561;42.666;23.392;2024-03-25T01:59:04;0.40;;;0.40;;
3101;SDS011;1561;42.666;23.392;2024-03-25T02:01:31;0.53;;;0.50;;
3101;SDS011;1561;42.666;23.392;2024-03-25T02:04:01;0.50;;;0.43;;
3101;SDS011;1561;42.666;23.392;2024-03-25T02:06:28;0.47;;;0.30;;
3101;SDS011;1561;42.666;23.392;2024-03-25T02:09:01;0.50;;;0.40;;
3101;SDS011;1561;42.666;23.392;2024-03-25T02:11:31;0.40;;;0.30;;
3101;SDS011;1561;42.666;23.392;2024-03-25T02:14:02;0.70;;;0.33;;
3101;SDS011;1561;42.666;23.392;2024-03-25T02:16:30;0.40;;;0.40;;
3101;SDS011;1561;42.666;23.392;2024-03-25T02:19:05;1.00;;;0.47;;
3101;SDS011;1561;42.666;23.392;2024-03-25T02:21:43;0.60;;;0.50;;
3101;SDS011;1561;42.666;23.392;2024-03-25T02:24:14;0.40;;;0.40;;
3101;SDS011;1561;42.666;23.392;2024-03-25T02:26:48;0.90;;;0.50;;
3101;SDS011;1561;42.666;23.392;2024-03-25T02:29:17;0.50;;;0.50;;
3101;SDS011;1561;42.666;23.392;2024-03-25T02:31:43;0.50;;;0.50;;
3101;SDS011;1561;42.666;23.392;2024-03-25T02:34:26;0.50;;;0.50;;
3101;SDS011;1561;42.666;23.392;2024-03-25T02:36:56;0.60;;;0.60;;
3101;SDS011;1561;42.666;23.392;2024-03-25T02:39:26;0.60;;;0.60;;
3101;SDS011;1561;42.666;23.392;2024-03-25T02:42:10;0.40;;;0.40;;
3101;SDS011;1561;42.666;23.392;2024-03-25T02:44:40;0.40;;;0.40;;
3101;SDS011;1561;42.666;23.392;2024-03-25T02:47:19;0.50;;;0.50;;
3101;SDS011;1561;42.666;23.392;2024-03-25T02:49:52;0.50;;;0.50;;
3101;SDS011;1561;42.666;23.392;2024-03-25T02:52:26;0.67;;;0.67;;
3101;SDS011;1561;42.666;23.392;2024-03-25T02:55:00;0.50;;;0.50;;
3101;SDS011;1561;42.666;23.392;2024-03-25T02:57:40;0.50;;;0.50;;
3101;SDS011;1561;42.666;23.392;2024-03-25T03:00:29;0.50;;;0.50;;
3101;SDS011;1561;42.666;23.392;2024-03-25T03:02:58;1.00;;;0.80;;
3101;SDS011;1561;42.666;23.392;2024-03-25T03:05:33;0.70;;;0.70;;
3101;SDS011;1561;42.666;23.392;2024-03-25T03:08:18;0.70;;;0.70;;
3101;SDS011;1561;42.666;23.392;2024-03-25T03:10:48;0.70;;;0.70;;
3101;SDS011;1561;42.666;23.392;2024-03-25T03:13:20;0.70;;;0.70;;
3101;SDS011;1561;42.666;23.392;2024-03-25T03:16:02;0.90;;;0.90;;
3101;SDS011;1561;42.666;23.392;2024-03-25T03:18:39;0.93;;;0.93;;
3101;SDS011;1561;42.666;23.392;2024-03-25T03:21:20;0.80;;;0.80;;
3101;SDS011;1561;42.666;23.392;2024-03-25T03:23:48;1.00;;;0.90;;
3101;SDS011;1561;42.666;23.392;2024-03-25T03:26:18;0.70;;;0.70;;
3101;SDS011;1561;42.666;23.392;2024-03-25T03:29:01;1.20;;;1.10;;
3101;SDS011;1561;42.666;23.392;2024-03-25T03:31:31;0.83;;;0.83;;
3101;SDS011;1561;42.666;23.392;2024-03-25T03:34:00;1.90;;;0.93;;
3101;SDS011;1561;42.666;23.392;2024-03-25T03:36:29;0.70;;;0.70;;
3101;SDS011;1561;42.666;23.392;2024-03-25T03:38:58;0.90;;;0.90;;
3101;SDS011;1561;42.666;23.392;2024-03-25T03:41:28;1.10;;;1.00;;
3101;SDS011;1561;42.666;23.392;2024-03-25T03:44:11;1.10;;;1.00;;
3101;SDS011;1561;42.666;23.392;2024-03-25T03:46:45;1.33;;;1.23;;
3101;SDS011;1561;42.666;23.392;2024-03-25T03:49:17;0.80;;;0.80;;
3101;SDS011;1561;42.666;23.392;2024-03-25T03:51:46;1.10;;;1.03;;
3101;SDS011;1561;42.666;23.392;2024-03-25T03:54:19;1.47;;;1.37;;
3101;SDS011;1561;42.666;23.392;2024-03-25T03:56:54;1.60;;;1.50;;
3101;SDS011;1561;42.666;23.392;2024-03-25T03:59:32;1.43;;;1.33;;
3101;SDS011;1561;42.666;23.392;2024-03-25T04:02:09;1.30;;;1.20;;
3101;SDS011;1561;42.666;23.392;2024-03-25T04:04:38;1.63;;;1.53;;
3101;SDS011;1561;42.666;23.392;2024-03-25T04:07:07;1.53;;;1.27;;
3101;SDS011;1561;42.666;23.392;2024-03-25T04:09:42;2.30;;;1.63;;
3101;SDS011;1561;42.666;23.392;2024-03-25T04:12:12;3.00;;;2.23;;
3101;SDS011;1561;42.666;23.392;2024-03-25T04:14:51;5.50;;;1.93;;
3101;SDS011;1561;42.666;23.392;2024-03-25T04:17:33;1.67;;;1.57;;
3101;SDS011;1561;42.666;23.392;2024-03-25T04:20:15;1.70;;;1.60;;
3101;SDS011;1561;42.666;23.392;2024-03-25T04:22:47;1.30;;;1.20;;
3101;SDS011;1561;42.666;23.392;2024-03-25T04:25:18;7.83;;;1.67;;
3101;SDS011;1561;42.666;23.392;2024-03-25T04:27:59;2.00;;;1.63;;
3101;SDS011;1561;42.666;23.392;2024-03-25T04:30:52;1.50;;;1.40;;
3101;SDS011;1561;42.666;23.392;2024-03-25T04:33:23;2.50;;;2.07;;
3101;SDS011;1561;42.666;23.392;2024-03-25T04:36:01;3.00;;;2.30;;
3101;SDS011;1561;42.666;23.392;2024-03-25T04:38:39;2.10;;;1.73;;
3101;SDS011;1561;42.666;23.392;2024-03-25T04:41:10;3.63;;;2.60;;
3101;SDS011;1561;42.666;23.392;2024-03-25T04:43:36;3.50;;;2.80;;
3101;SDS011;1561;42.666;23.392;2024-03-25T04:46:15;5.30;;;3.23;;
3101;SDS011;1561;42.666;23.392;2024-03-25T04:48:50;5.20;;;3.90;;
3101;SDS011;1561;42.666;23.392;2024-03-25T04:51:19;6.77;;;3.13;;
3101;SDS011;1561;42.666;23.392;2024-03-25T04:53:49;5.57;;;3.40;;
3101;SDS011;1561;42.666;23.392;2024-03-25T04:56:18;4.07;;;3.27;;
3101;SDS011;1561;42.666;23.392;2024-03-25T04:59:17;5.00;;;3.30;;
3101;SDS011;1561;42.666;23.392;2024-03-25T05:04:50;5.50;;;4.10;;
3101;SDS011;1561;42.666;23.392;2024-03-25T05:07:47;8.60;;;5.40;;
3101;SDS011;1561;42.666;23.392;2024-03-25T05:10:15;9.53;;;4.43;;
3101;SDS011;1561;42.666;23.392;2024-03-25T05:15:31;5.50;;;4.37;;
3101;SDS011;1561;42.666;23.392;2024-03-25T05:18:07;6.40;;;5.20;;
3101;SDS011;1561;42.666;23.392;2024-03-25T05:20:35;10.13;;;6.53;;
3101;SDS011;1561;42.666;23.392;2024-03-25T05:25:57;8.10;;;4.93;;
3101;SDS011;1561;42.666;23.392;2024-03-25T05:28:46;6.93;;;4.53;;
3101;SDS011;1561;42.666;23.392;2024-03-25T05:31:56;8.53;;;6.30;;
3101;SDS011;1561;42.666;23.392;2024-03-25T05:37:54;8.40;;;6.30;;
3101;SDS011;1561;42.666;23.392;2024-03-25T05:40:49;9.97;;;6.83;;
3101;SDS011;1561;42.666;23.392;2024-03-25T05:43:25;6.73;;;5.10;;
3101;SDS011;1561;42.666;23.392;2024-03-25T05:49:26;9.83;;;6.70;;
3101;SDS011;1561;42.666;23.392;2024-03-25T05:55:13;9.10;;;5.50;;
3101;SDS011;1561;42.666;23.392;2024-03-25T05:57:50;9.73;;;5.30;;
3101;SDS011;1561;42.666;23.392;2024-03-25T06:00:37;11.70;;;6.53;;
3101;SDS011;1561;42.666;23.392;2024-03-25T06:03:24;12.17;;;6.70;;
3101;SDS011;1561;42.666;23.392;2024-03-25T06:06:23;9.40;;;6.97;;
3101;SDS011;1561;42.666;23.392;2024-03-25T06:08:57;10.20;;;7.90;;
3101;SDS011;1561;42.666;23.392;2024-03-25T06:14:22;12.70;;;8.00;;
3101;SDS011;1561;42.666;23.392;2024-03-25T06:16:57;11.20;;;7.20;;
3101;SDS011;1561;42.666;23.392;2024-03-25T06:19:29;9.63;;;6.10;;
3101;SDS011;1561;42.666;23.392;2024-03-25T06:22:03;11.50;;;7.57;;
3101;SDS011;1561;42.666;23.392;2024-03-25T06:24:39;10.27;;;7.63;;
3101;SDS011;1561;42.666;23.392;2024-03-25T06:27:45;9.90;;;6.83;;
3101;SDS011;1561;42.666;23.392;2024-03-25T06:30:16;11.37;;;7.53;;
3101;SDS011;1561;42.666;23.392;2024-03-25T06:33:02;11.80;;;8.50;;
3101;SDS011;1561;42.666;23.392;2024-03-25T06:35:49;11.90;;;7.47;;
3101;SDS011;1561;42.666;23.392;2024-03-25T06:38:23;12.03;;;8.13;;
3101;SDS011;1561;42.666;23.392;2024-03-25T06:40:55;10.90;;;7.50;;
3101;SDS011;1561;42.666;23.392;2024-03-25T06:43:48;9.70;;;7.10;;
3101;SDS011;1561;42.666;23.392;2024-03-25T06:46:17;9.43;;;7.33;;
3101;SDS011;1561;42.666;23.392;2024-03-25T06:48:47;7.90;;;5.80;;
3101;SDS011;1561;42.666;23.392;2024-03-25T06:51:17;9.10;;;7.40;;
3101;SDS011;1561;42.666;23.392;2024-03-25T06:53:47;11.27;;;7.63;;
3101;SDS011;1561;42.666;23.392;2024-03-25T06:56:31;9.70;;;7.17;;
3101;SDS011;1561;42.666;23.392;2024-03-25T07:02:19;10.07;;;7.57;;
3101;SDS011;1561;42.666;23.392;2024-03-25T07:05:05;11.10;;;7.87;;
3101;SDS011;1561;42.666;23.392;2024-03-25T07:07:56;10.73;;;6.17;;
3101;SDS011;1561;42.666;23.392;2024-03-25T07:10:25;13.43;;;8.10;;
3101;SDS011;1561;42.666;23.392;2024-03-25T07:12:55;9.53;;;7.30;;
3101;SDS011;1561;42.666;23.392;2024-03-25T07:15:31;13.50;;;10.07;;
3101;SDS011;1561;42.666;23.392;2024-03-25T07:17:58;9.47;;;7.10;;
3101;SDS011;1561;42.666;23.392;2024-03-25T07:20:37;9.13;;;7.70;;
3101;SDS011;1561;42.666;23.392;2024-03-25T07:23:03;9.77;;;7.50;;
3101;SDS011;1561;42.666;23.392;2024-03-25T07:25:31;11.73;;;7.87;;
3101;SDS011;1561;42.666;23.392;2024-03-25T07:28:00;9.87;;;7.53;;
3101;SDS011;1561;42.666;23.392;2024-03-25T07:30:30;9.90;;;8.37;;
3101;SDS011;1561;42.666;23.392;2024-03-25T07:33:01;7.60;;;6.63;;
3101;SDS011;1561;42.666;23.392;2024-03-25T07:35:28;10.03;;;7.87;;
3101;SDS011;1561;42.666;23.392;2024-03-25T07:37:59;9.37;;;7.00;;
3101;SDS011;1561;42.666;23.392;2024-03-25T07:40:26;9.40;;;7.03;;
3101;SDS011;1561;42.666;23.392;2024-03-25T07:42:55;10.20;;;7.37;;
3101;SDS011;1561;42.666;23.392;2024-03-25T07:45:23;8.37;;;7.27;;
3101;SDS011;1561;42.666;23.392;2024-03-25T07:47:54;8.20;;;6.10;;
3101;SDS011;1561;42.666;23.392;2024-03-25T07:50:39;7.57;;;6.77;;
3101;SDS011;1561;42.666;23.392;2024-03-25T07:53:08;12.30;;;7.43;;
3101;SDS011;1561;42.666;23.392;2024-03-25T07:55:34;9.83;;;7.60;;
3101;SDS011;1561;42.666;23.392;2024-03-25T07:58:00;10.90;;;7.70;;
3101;SDS011;1561;42.666;23.392;2024-03-25T08:00:39;11.53;;;7.93;;
3101;SDS011;1561;42.666;23.392;2024-03-25T08:03:09;8.63;;;7.73;;
3101;SDS011;1561;42.666;23.392;2024-03-25T08:05:35;8.50;;;7.70;;
3101;SDS011;1561;42.666;23.392;2024-03-25T08:08:03;9.60;;;6.40;;
3101;SDS011;1561;42.666;23.392;2024-03-25T08:10:30;9.47;;;7.70;;
3101;SDS011;1561;42.666;23.392;2024-03-25T08:12:56;10.77;;;7.57;;
3101;SDS011;1561;42.666;23.392;2024-03-25T08:15:22;8.93;;;8.00;;
3101;SDS011;1561;42.666;23.392;2024-03-25T08:17:49;10.17;;;7.60;;
3101;SDS011;1561;42.666;23.392;2024-03-25T08:20:18;8.70;;;7.17;;
3101;SDS011;1561;42.666;23.392;2024-03-25T08:22:46;8.43;;;7.43;;
3101;SDS011;1561;42.666;23.392;2024-03-25T08:25:18;9.17;;;8.27;;
3101;SDS011;1561;42.666;23.392;2024-03-25T08:27:46;7.93;;;6.60;;
3101;SDS011;1561;42.666;23.392;2024-03-25T08:30:14;7.60;;;6.80;;
3101;SDS011;1561;42.666;23.392;2024-03-25T08:32:40;7.83;;;7.10;;
3101;SDS011;1561;42.666;23.392;2024-03-25T08:35:07;10.93;;;7.33;;
3101;SDS011;1561;42.666;23.392;2024-03-25T08:37:44;7.90;;;7.10;;
3101;SDS011;1561;42.666;23.392;2024-03-25T08:40:10;6.63;;;5.93;;
3101;SDS011;1561;42.666;23.392;2024-03-25T08:42:40;7.93;;;5.83;;
3101;SDS011;1561;42.666;23.392;2024-03-25T08:45:09;6.83;;;6.23;;
3101;SDS011;1561;42.666;23.392;2024-03-25T08:47:39;7.90;;;7.10;;
3101;SDS011;1561;42.666;23.392;2024-03-25T08:50:08;9.43;;;6.90;;
3101;SDS011;1561;42.666;23.392;2024-03-25T08:52:39;7.53;;;6.83;;
3101;SDS011;1561;42.666;23.392;2024-03-25T08:55:05;9.70;;;6.83;;
3101;SDS011;1561;42.666;23.392;2024-03-25T08:57:34;7.43;;;5.87;;
3101;SDS011;1561;42.666;23.392;2024-03-25T09:00:02;9.30;;;8.30;;
3101;SDS011;1561;42.666;23.392;2024-03-25T09:02:30;6.50;;;5.83;;
3101;SDS011;1561;42.666;23.392;2024-03-25T09:04:56;9.70;;;8.50;;
3101;SDS011;1561;42.666;23.392;2024-03-25T09:07:24;7.77;;;6.77;;
3101;SDS011;1561;42.666;23.392;2024-03-25T09:09:53;6.63;;;6.03;;
3101;SDS011;1561;42.666;23.392;2024-03-25T09:12:38;5.90;;;5.40;;
3101;SDS011;1561;42.666;23.392;2024-03-25T09:15:04;8.30;;;6.80;;
3101;SDS011;1561;42.666;23.392;2024-03-25T09:17:33;9.33;;;7.83;;
3101;SDS011;1561;42.666;23.392;2024-03-25T09:20:00;7.87;;;6.70;;
3101;SDS011;1561;42.666;23.392;2024-03-25T09:22:28;8.83;;;7.30;;
3101;SDS011;1561;42.666;23.392;2024-03-25T09:24:55;6.80;;;6.17;;
3101;SDS011;1561;42.666;23.392;2024-03-25T09:27:22;8.13;;;7.10;;
3101;SDS011;1561;42.666;23.392;2024-03-25T09:29:49;8.73;;;7.23;;
3101;SDS011;1561;42.666;23.392;2024-03-25T09:32:15;5.20;;;4.63;;
3101;SDS011;1561;42.666;23.392;2024-03-25T09:34:42;7.23;;;5.90;;
3101;SDS011;1561;42.666;23.392;2024-03-25T09:37:09;7.90;;;5.67;;
3101;SDS011;1561;42.666;23.392;2024-03-25T09:39:35;11.70;;;7.57;;
3101;SDS011;1561;42.666;23.392;2024-03-25T09:42:04;10.60;;;8.00;;
3101;SDS011;1561;42.666;23.392;2024-03-25T09:44:34;10.17;;;8.07;;
3101;SDS011;1561;42.666;23.392;2024-03-25T09:47:03;8.00;;;7.20;;
3101;SDS011;1561;42.666;23.392;2024-03-25T09:49:32;11.13;;;6.53;;
3101;SDS011;1561;42.666;23.392;2024-03-25T09:52:02;7.53;;;6.73;;
3101;SDS011;1561;42.666;23.392;2024-03-25T09:54:31;10.50;;;8.30;;
3101;SDS011;1561;42.666;23.392;2024-03-25T09:57:21;7.77;;;5.83;;
3101;SDS011;1561;42.666;23.392;2024-03-25T09:59:49;8.90;;;7.80;;
3101;SDS011;1561;42.666;23.392;2024-03-25T10:02:17;8.03;;;6.70;;
3101;SDS011;1561;42.666;23.392;2024-03-25T10:04:55;7.87;;;7.07;;
3101;SDS011;1561;42.666;23.392;2024-03-25T10:07:22;5.20;;;4.40;;
3101;SDS011;1561;42.666;23.392;2024-03-25T10:09:49;7.63;;;6.60;;
3101;SDS011;1561;42.666;23.392;2024-03-25T10:12:25;7.70;;;6.90;;
3101;SDS011;1561;42.666;23.392;2024-03-25T10:14:53;7.03;;;6.43;;
3101;SDS011;1561;42.666;23.392;2024-03-25T10:17:20;6.93;;;6.30;;
3101;SDS011;1561;42.666;23.392;2024-03-25T10:19:48;6.90;;;6.20;;
3101;SDS011;1561;42.666;23.392;2024-03-25T10:22:16;6.87;;;5.70;;
3101;SDS011;1561;42.666;23.392;2024-03-25T10:24:44;6.07;;;5.00;;
3101;SDS011;1561;42.666;23.392;2024-03-25T10:27:18;5.63;;;5.13;;
3101;SDS011;1561;42.666;23.392;2024-03-25T10:29:51;7.93;;;5.67;;
3101;SDS011;1561;42.666;23.392;2024-03-25T10:32:19;6.60;;;6.00;;
3101;SDS011;1561;42.666;23.392;2024-03-25T10:34:46;6.23;;;5.60;;
3101;SDS011;1561;42.666;23.392;2024-03-25T10:37:15;7.87;;;6.17;;
3101;SDS011;1561;42.666;23.392;2024-03-25T10:39:43;6.60;;;5.70;;
3101;SDS011;1561;42.666;23.392;2024-03-25T10:42:18;7.20;;;5.93;;
3101;SDS011;1561;42.666;23.392;2024-03-25T10:44:54;5.70;;;5.20;;
3101;SDS011;1561;42.666;23.392;2024-03-25T10:47:21;5.70;;;5.20;;
3101;SDS011;1561;42.666;23.392;2024-03-25T10:49:51;5.93;;;5.33;;
3101;SDS011;1561;42.666;23.392;2024-03-25T10:52:29;4.53;;;4.23;;
3101;SDS011;1561;42.666;23.392;2024-03-25T10:57:54;5.97;;;5.47;;
3101;SDS011;1561;42.666;23.392;2024-03-25T11:00:26;5.57;;;5.10;;
3101;SDS011;1561;42.666;23.392;2024-03-25T11:02:54;6.30;;;5.70;;
3101;SDS011;1561;42.666;23.392;2024-03-25T11:05:23;4.87;;;4.37;;
3101;SDS011;1561;42.666;23.392;2024-03-25T11:07:52;5.90;;;5.40;;
3101;SDS011;1561;42.666;23.392;2024-03-25T11:10:28;6.10;;;5.60;;
3101;SDS011;1561;42.666;23.392;2024-03-25T11:13:16;6.23;;;5.53;;
3101;SDS011;1561;42.666;23.392;2024-03-25T11:15:45;6.30;;;5.70;;
3101;SDS011;1561;42.666;23.392;2024-03-25T11:18:13;6.03;;;5.53;;
3101;SDS011;1561;42.666;23.392;2024-03-25T11:20:41;5.90;;;5.40;;
3101;SDS011;1561;42.666;23.392;2024-03-25T11:23:09;5.87;;;5.37;;
3101;SDS011;1561;42.666;23.392;2024-03-25T11:25:40;5.80;;;5.03;;
3101;SDS011;1561;42.666;23.392;2024-03-25T11:28:07;6.00;;;5.40;;
3101;SDS011;1561;42.666;23.392;2024-03-25T11:30:36;5.87;;;5.30;;
3101;SDS011;1561;42.666;23.392;2024-03-25T11:33:07;7.43;;;5.40;;
3101;SDS011;1561;42.666;23.392;2024-03-25T11:35:36;5.53;;;4.90;;
3101;SDS011;1561;42.666;23.392;2024-03-25T11:38:03;3.60;;;3.40;;
3101;SDS011;1561;42.666;23.392;2024-03-25T11:40:30;4.73;;;4.23;;
3101;SDS011;1561;42.666;23.392;2024-03-25T11:42:56;4.27;;;3.87;;
3101;SDS011;1561;42.666;23.392;2024-03-25T11:45:26;4.33;;;3.90;;
3101;SDS011;1561;42.666;23.392;2024-03-25T11:47:52;4.77;;;4.37;;
3101;SDS011;1561;42.666;23.392;2024-03-25T11:50:21;5.50;;;5.00;;
3101;SDS011;1561;42.666;23.392;2024-03-25T11:52:48;5.53;;;5.03;;
3101;SDS011;1561;42.666;23.392;2024-03-25T11:55:16;5.07;;;4.67;;
3101;SDS011;1561;42.666;23.392;2024-03-25T11:57:46;5.70;;;5.07;;
3101;SDS011;1561;42.666;23.392;2024-03-25T12:00:21;5.67;;;5.27;;
3101;SDS011;1561;42.666;23.392;2024-03-25T12:02:51;7.20;;;4.80;;
3101;SDS011;1561;42.666;23.392;2024-03-25T12:05:19;5.40;;;4.90;;
3101;SDS011;1561;42.666;23.392;2024-03-25T12:07:48;4.60;;;4.30;;
3101;SDS011;1561;42.666;23.392;2024-03-25T12:10:15;5.27;;;4.30;;
3101;SDS011;1561;42.666;23.392;2024-03-25T12:13:03;5.30;;;4.40;;
3101;SDS011;1561;42.666;23.392;2024-03-25T12:15:29;4.87;;;4.47;;
3101;SDS011;1561;42.666;23.392;2024-03-25T12:17:56;4.70;;;4.30;;
3101;SDS011;1561;42.666;23.392;2024-03-25T12:23:13;4.17;;;3.87;;
3101;SDS011;1561;42.666;23.392;2024-03-25T12:25:47;10.90;;;4.70;;
3101;SDS011;1561;42.666;23.392;2024-03-25T12:28:17;4.90;;;4.50;;
3101;SDS011;1561;42.666;23.392;2024-03-25T12:30:49;5.50;;;5.03;;
3101;SDS011;1561;42.666;23.392;2024-03-25T12:33:21;4.63;;;4.23;;
3101;SDS011;1561;42.666;23.392;2024-03-25T12:36:07;3.60;;;3.33;;
3101;SDS011;1561;42.666;23.392;2024-03-25T12:38:54;4.50;;;4.20;;
3101;SDS011;1561;42.666;23.392;2024-03-25T12:41:21;4.87;;;4.47;;
3101;SDS011;1561;42.666;23.392;2024-03-25T12:43:54;6.20;;;5.10;;
3101;SDS011;1561;42.666;23.392;2024-03-25T12:46:21;5.43;;;5.03;;
3101;SDS011;1561;42.666;23.392;2024-03-25T12:48:48;5.13;;;4.73;;
3101;SDS011;1561;42.666;23.392;2024-03-25T12:51:16;4.60;;;4.30;;
3101;SDS011;1561;42.666;23.392;2024-03-25T12:53:48;4.70;;;4.30;;
3101;SDS011;1561;42.666;23.392;2024-03-25T12:56:19;4.27;;;3.97;;
3101;SDS011;1561;42.666;23.392;2024-03-25T12:58:45;4.87;;;4.50;;
3101;SDS011;1561;42.666;23.392;2024-03-25T13:01:13;4.03;;;3.73;;
3101;SDS011;1561;42.666;23.392;2024-03-25T13:03:41;4.53;;;4.13;;
3101;SDS011;1561;42.666;23.392;2024-03-25T13:06:25;4.33;;;3.93;;
3101;SDS011;1561;42.666;23.392;2024-03-25T13:08:54;4.50;;;4.10;;
3101;SDS011;1561;42.666;23.392;2024-03-25T13:11:26;4.30;;;4.00;;
3101;SDS011;1561;42.666;23.392;2024-03-25T13:13:55;3.63;;;3.40;;
3101;SDS011;1561;42.666;23.392;2024-03-25T13:16:23;3.80;;;3.50;;
3101;SDS011;1561;42.666;23.392;2024-03-25T13:18:49;4.33;;;3.97;;
3101;SDS011;1561;42.666;23.392;2024-03-25T13:21:16;4.33;;;3.97;;
3101;SDS011;1561;42.666;23.392;2024-03-25T13:23:44;4.37;;;3.97;;
3101;SDS011;1561;42.666;23.392;2024-03-25T13:26:13;5.10;;;4.10;;
3101;SDS011;1561;42.666;23.392;2024-03-25T13:28:42;4.60;;;3.97;;
3101;SDS011;1561;42.666;23.392;2024-03-25T13:31:08;5.43;;;4.30;;
3101;SDS011;1561;42.666;23.392;2024-03-25T13:33:37;5.43;;;4.93;;
3101;SDS011;1561;42.666;23.392;2024-03-25T13:36:05;7.00;;;5.10;;
3101;SDS011;1561;42.666;23.392;2024-03-25T13:38:38;4.70;;;4.23;;
3101;SDS011;1561;42.666;23.392;2024-03-25T13:41:05;5.03;;;4.20;;
3101;SDS011;1561;42.666;23.392;2024-03-25T13:43:32;5.20;;;4.70;;
3101;SDS011;1561;42.666;23.392;2024-03-25T13:46:03;4.90;;;4.50;;
3101;SDS011;1561;42.666;23.392;2024-03-25T13:48:31;4.93;;;4.00;;
3101;SDS011;1561;42.666;23.392;2024-03-25T13:51:00;4.30;;;3.97;;
3101;SDS011;1561;42.666;23.392;2024-03-25T13:53:31;4.43;;;4.10;;
3101;SDS011;1561;42.666;23.392;2024-03-25T13:56:05;5.07;;;3.77;;
3101;SDS011;1561;42.666;23.392;2024-03-25T13:58:34;4.10;;;3.70;;
3101;SDS011;1561;42.666;23.392;2024-03-25T14:01:01;4.60;;;4.30;;
3101;SDS011;1561;42.666;23.392;2024-03-25T14:03:32;4.30;;;4.00;;
3101;SDS011;1561;42.666;23.392;2024-03-25T14:06:01;5.60;;;5.10;;
3101;SDS011;1561;42.666;23.392;2024-03-25T14:08:27;3.10;;;2.90;;
3101;SDS011;1561;42.666;23.392;2024-03-25T14:11:01;3.53;;;3.23;;
3101;SDS011;1561;42.666;23.392;2024-03-25T14:13:32;6.07;;;3.90;;
3101;SDS011;1561;42.666;23.392;2024-03-25T14:15:58;2.63;;;2.43;;
3101;SDS011;1561;42.666;23.392;2024-03-25T14:18:31;3.00;;;2.60;;
3101;SDS011;1561;42.666;23.392;2024-03-25T14:20:58;2.97;;;2.37;;
3101;SDS011;1561;42.666;23.392;2024-03-25T14:23:26;2.70;;;2.50;;
3101;SDS011;1561;42.666;23.392;2024-03-25T14:25:52;6.20;;;2.90;;
3101;SDS011;1561;42.666;23.392;2024-03-25T14:28:20;4.43;;;2.27;;
3101;SDS011;1561;42.666;23.392;2024-03-25T14:30:47;2.60;;;2.40;;
3101;SDS011;1561;42.666;23.392;2024-03-25T14:33:15;2.80;;;2.30;;
3101;SDS011;1561;42.666;23.392;2024-03-25T14:35:42;2.40;;;2.30;;
3101;SDS011;1561;42.666;23.392;2024-03-25T14:38:11;2.97;;;2.77;;
3101;SDS011;1561;42.666;23.392;2024-03-25T14:40:38;3.33;;;2.87;;
3101;SDS011;1561;42.666;23.392;2024-03-25T14:43:07;3.20;;;2.40;;
3101;SDS011;1561;42.666;23.392;2024-03-25T14:45:37;2.20;;;2.10;;
3101;SDS011;1561;42.666;23.392;2024-03-25T14:48:05;2.83;;;2.30;;
3101;SDS011;1561;42.666;23.392;2024-03-25T14:50:33;2.43;;;2.33;;
3101;SDS011;1561;42.666;23.392;2024-03-25T14:52:59;2.30;;;2.20;;
3101;SDS011;1561;42.666;23.392;2024-03-25T14:55:28;3.00;;;2.80;;
3101;SDS011;1561;42.666;23.392;2024-03-25T14:57:56;3.57;;;2.87;;
3101;SDS011;1561;42.666;23.392;2024-03-25T15:00:25;5.00;;;3.17;;
3101;SDS011;1561;42.666;23.392;2024-03-25T15:02:53;3.10;;;2.80;;
3101;SDS011;1561;42.666;23.392;2024-03-25T15:05:19;3.77;;;3.10;;
3101;SDS011;1561;42.666;23.392;2024-03-25T15:07:51;3.20;;;2.90;;
3101;SDS011;1561;42.666;23.392;2024-03-25T15:10:18;3.63;;;3.33;;
3101;SDS011;1561;42.666;23.392;2024-03-25T15:15:40;4.73;;;3.27;;
3101;SDS011;1561;42.666;23.392;2024-03-25T15:18:12;3.73;;;3.43;;
3101;SDS011;1561;42.666;23.392;2024-03-25T15:20:41;3.27;;;3.07;;
3101;SDS011;1561;42.666;23.392;2024-03-25T15:23:10;3.60;;;3.30;;
3101;SDS011;1561;42.666;23.392;2024-03-25T15:25:37;4.70;;;4.30;;
3101;SDS011;1561;42.666;23.392;2024-03-25T15:28:03;4.13;;;3.73;;
3101;SDS011;1561;42.666;23.392;2024-03-25T15:30:32;3.87;;;3.50;;
3101;SDS011;1561;42.666;23.392;2024-03-25T15:33:08;4.00;;;3.60;;
3101;SDS011;1561;42.666;23.392;2024-03-25T15:35:39;3.77;;;3.47;;
3101;SDS011;1561;42.666;23.392;2024-03-25T15:38:10;4.40;;;3.43;;
3101;SDS011;1561;42.666;23.392;2024-03-25T15:40:38;11.83;;;3.60;;
3101;SDS011;1561;42.666;23.392;2024-03-25T15:43:06;3.80;;;3.50;;
3101;SDS011;1561;42.666;23.392;2024-03-25T15:45:33;5.60;;;4.50;;
3101;SDS011;1561;42.666;23.392;2024-03-25T15:48:01;10.50;;;5.23;;
3101;SDS011;1561;42.666;23.392;2024-03-25T15:50:29;6.77;;;3.80;;
3101;SDS011;1561;42.666;23.392;2024-03-25T15:52:57;3.03;;;2.77;;
3101;SDS011;1561;42.666;23.392;2024-03-25T15:55:25;3.30;;;3.00;;
3101;SDS011;1561;42.666;23.392;2024-03-25T15:58:06;4.37;;;2.97;;
3101;SDS011;1561;42.666;23.392;2024-03-25T16:00:32;5.03;;;3.17;;
3101;SDS011;1561;42.666;23.392;2024-03-25T16:03:01;3.33;;;3.03;;